Aviation Digital Data Service (ADDS)

Output produced by METARs form (2359 UTC 05 March 2015)
found at http://aviationweather.gov/adds/metars/
 
KLEB 052320Z 0600/0624 35008KT P6SM BKN200 
     FM060400 33004KT P6SM SKC 
     FM061500 22005KT P6SM SKC